Time;durP1;ratioP1;P1;durP2;ratioP2;P2;SDS_P1;SDS_P2;PMS_P1;PMS_P2;Temp;Humidity;BMP_temperature;BMP_pressure;BME280_temperature;BME280_humidity;BME280_pressure;Samples;Min_cycle;Max_cycle;Signal;HPM_P1;HPM_P2
2022/05/28 00:01:10;;;;;;;4.72;2.22;;;;;;;;;;5103952;28;20211;-68
2022/05/28 00:03:36;;;;;;;2.65;2.00;;;;;;;;;;5103909;28;20232;-67
2022/05/28 00:06:03;;;;;;;2.40;2.20;;;;;;;;;;5103599;28;20550;-67
2022/05/28 00:08:29;;;;;;;2.10;1.88;;;;;;;;;;5104096;28;20253;-67
2022/05/28 00:10:58;;;;;;;3.70;2.30;;;;;;;;;;5103988;28;20204;-67
2022/05/28 00:13:24;;;;;;;4.70;2.25;;;;;;;;;;5103853;28;20495;-68
2022/05/28 00:15:50;;;;;;;11.75;2.63;;;;;;;;;;5103560;28;20219;-68
2022/05/28 00:18:17;;;;;;;4.57;2.45;;;;;;;;;;5103442;28;20196;-68
2022/05/28 00:20:43;;;;;;;2.88;2.22;;;;;;;;;;5103615;28;20195;-68
2022/05/28 00:23:09;;;;;;;4.40;2.58;;;;;;;;;;5103667;28;20199;-68
2022/05/28 00:25:36;;;;;;;3.60;2.38;;;;;;;;;;5103777;28;20499;-67
2022/05/28 00:28:03;;;;;;;4.10;2.42;;;;;;;;;;5103286;28;20206;-68
2022/05/28 00:30:30;;;;;;;6.18;2.55;;;;;;;;;;5103508;28;20221;-68
2022/05/28 00:32:56;;;;;;;6.28;2.40;;;;;;;;;;5103440;28;20204;-68
2022/05/28 00:35:22;;;;;;;4.65;2.35;;;;;;;;;;5103136;28;20582;-68
2022/05/28 00:37:48;;;;;;;6.35;2.70;;;;;;;;;;5103360;28;20491;-68
2022/05/28 00:40:16;;;;;;;8.27;2.88;;;;;;;;;;5103137;28;20195;-68
2022/05/28 00:42:42;;;;;;;4.70;2.65;;;;;;;;;;5103659;28;20409;-68
2022/05/28 00:45:11;;;;;;;5.95;2.95;;;;;;;;;;5103292;28;20191;-68
2022/05/28 00:47:39;;;;;;;5.55;2.70;;;;;;;;;;5102854;28;20227;-68
2022/05/28 00:50:06;;;;;;;4.90;3.28;;;;;;;;;;5103210;28;20211;-68
2022/05/28 00:52:33;;;;;;;3.72;2.95;;;;;;;;;;5102957;28;20418;-68
2022/05/28 00:55:00;;;;;;;6.30;3.20;;;;;;;;;;5103002;28;20262;-68
2022/05/28 00:57:26;;;;;;;3.47;2.85;;;;;;;;;;5102710;28;20199;-68
2022/05/28 00:59:54;;;;;;;8.77;3.08;;;;;;;;;;5102867;28;20199;-68
2022/05/28 01:02:23;;;;;;;5.53;2.63;;;;;;;;;;5102829;28;20195;-68
2022/05/28 01:04:53;;;;;;;3.42;3.13;;;;;;;;;;5102036;28;20210;-68
2022/05/28 01:07:24;;;;;;;7.05;3.20;;;;;;;;;;5102627;28;20395;-68
2022/05/28 01:09:56;;;;;;;9.30;3.13;;;;;;;;;;5102516;28;20207;-68
2022/05/28 01:12:26;;;;;;;4.35;3.17;;;;;;;;;;5102955;28;20200;-68
2022/05/28 01:14:56;;;;;;;5.60;3.15;;;;;;;;;;5102885;28;20499;-68
2022/05/28 01:17:27;;;;;;;7.22;3.30;;;;;;;;;;5102550;28;20387;-68
2022/05/28 01:19:59;;;;;;;7.05;3.00;;;;;;;;;;5102734;28;20248;-68
2022/05/28 01:22:32;;;;;;;5.03;3.13;;;;;;;;;;5102758;28;20219;-68
2022/05/28 01:25:03;;;;;;;3.60;3.30;;;;;;;;;;5102842;28;20196;-68
2022/05/28 01:27:33;;;;;;;5.82;3.30;;;;;;;;;;5102286;28;20196;-68
2022/05/28 01:30:02;;;;;;;3.50;3.20;;;;;;;;;;5102606;28;20199;-68
2022/05/28 01:32:30;;;;;;;7.95;3.58;;;;;;;;;;5102464;28;20203;-68
2022/05/28 01:34:58;;;;;;;9.63;3.15;;;;;;;;;;5102307;28;20202;-68
2022/05/28 01:37:25;;;;;;;4.80;3.10;;;;;;;;;;5102335;28;20196;-68
2022/05/28 01:39:52;;;;;;;4.38;2.88;;;;;;;;;;5102617;28;20458;-68
2022/05/28 01:42:18;;;;;;;5.03;2.92;;;;;;;;;;5102398;28;20203;-68
2022/05/28 01:44:47;;;;;;;9.48;3.38;;;;;;;;;;5102364;28;20195;-68
2022/05/28 01:47:14;;;;;;;3.83;3.25;;;;;;;;;;5102018;28;20198;-68
2022/05/28 01:49:41;;;;;;;6.15;3.03;;;;;;;;;;5102721;28;20192;-68
2022/05/28 01:52:08;;;;;;;6.57;3.10;;;;;;;;;;5102319;28;20526;-68
2022/05/28 01:54:36;;;;;;;7.60;2.88;;;;;;;;;;5102356;28;20196;-68
2022/05/28 01:57:02;;;;;;;7.82;3.50;;;;;;;;;;5101896;28;20414;-68
2022/05/28 01:59:30;;;;;;;4.53;2.97;;;;;;;;;;5102349;28;20204;-68
2022/05/28 02:01:58;;;;;;;14.57;3.78;;;;;;;;;;5102192;28;20203;-68
2022/05/28 02:04:25;;;;;;;6.03;3.28;;;;;;;;;;5102037;28;20203;-68
2022/05/28 02:07:27;;;;;;;7.43;3.03;;;;;;;;;;5101939;28;20219;-68
2022/05/28 02:09:56;;;;;;;4.82;2.75;;;;;;;;;;5101639;28;20195;-68
2022/05/28 02:12:25;;;;;;;4.28;2.70;;;;;;;;;;5102333;28;20267;-68
2022/05/28 02:15:06;;;;;;;7.65;2.88;;;;;;;;;;5102288;28;20202;-68
2022/05/28 02:17:37;;;;;;;6.78;3.00;;;;;;;;;;5104186;28;20223;-68
2022/05/28 02:20:08;;;;;;;5.00;2.53;;;;;;;;;;5106422;28;20202;-68
2022/05/28 02:22:38;;;;;;;8.80;2.53;;;;;;;;;;5106131;28;20196;-68
2022/05/28 02:25:07;;;;;;;5.70;2.65;;;;;;;;;;5105812;28;20202;-68
2022/05/28 02:27:34;;;;;;;4.65;2.53;;;;;;;;;;5105693;28;20191;-68
2022/05/28 02:30:01;;;;;;;10.13;2.70;;;;;;;;;;5105957;28;20195;-68
2022/05/28 02:32:27;;;;;;;4.75;2.65;;;;;;;;;;5105773;28;20211;-68
2022/05/28 02:34:55;;;;;;;8.20;2.70;;;;;;;;;;5105730;28;20203;-67
2022/05/28 02:37:22;;;;;;;6.45;2.65;;;;;;;;;;5105348;28;20393;-68
2022/05/28 02:39:49;;;;;;;5.15;2.22;;;;;;;;;;5105711;28;20219;-68
2022/05/28 02:42:16;;;;;;;7.43;2.45;;;;;;;;;;5105685;28;20611;-68
2022/05/28 02:44:42;;;;;;;6.15;2.70;;;;;;;;;;5105540;28;20196;-68
2022/05/28 02:47:09;;;;;;;7.70;2.60;;;;;;;;;;5105270;28;20196;-68
2022/05/28 02:49:35;;;;;;;8.75;2.78;;;;;;;;;;5105686;28;20195;-68
2022/05/28 02:52:03;;;;;;;7.45;2.58;;;;;;;;;;5105504;28;20195;-68
2022/05/28 02:54:30;;;;;;;6.93;2.55;;;;;;;;;;5105444;28;20196;-69
2022/05/28 02:56:56;;;;;;;9.18;2.45;;;;;;;;;;5105123;28;20211;-69
2022/05/28 02:59:22;;;;;;;2.85;2.45;;;;;;;;;;5105236;28;20195;-68
2022/05/28 03:01:50;;;;;;;8.13;2.88;;;;;;;;;;5105178;28;20207;-68
2022/05/28 03:04:16;;;;;;;9.73;2.83;;;;;;;;;;5105147;28;20231;-68
2022/05/28 03:06:42;;;;;;;5.70;2.53;;;;;;;;;;5105151;28;20219;-68
2022/05/28 03:09:10;;;;;;;8.02;2.72;;;;;;;;;;5104827;28;20214;-68
2022/05/28 03:11:37;;;;;;;5.07;2.92;;;;;;;;;;5105498;28;20203;-68
2022/05/28 03:14:04;;;;;;;8.32;2.30;;;;;;;;;;5104965;28;20195;-68
2022/05/28 03:16:31;;;;;;;5.00;2.50;;;;;;;;;;5104593;28;20535;-68
2022/05/28 03:18:57;;;;;;;7.38;2.70;;;;;;;;;;5105055;28;20199;-68
2022/05/28 03:21:23;;;;;;;3.13;2.40;;;;;;;;;;5104945;28;20195;-68
2022/05/28 03:23:49;;;;;;;4.95;2.67;;;;;;;;;;5104751;28;20196;-67
2022/05/28 03:26:18;;;;;;;4.35;2.50;;;;;;;;;;5104994;28;20221;-68
2022/05/28 03:28:45;;;;;;;4.60;2.78;;;;;;;;;;5103494;28;20196;-68
2022/05/28 03:31:12;;;;;;;8.63;2.78;;;;;;;;;;5104587;28;20203;-68
2022/05/28 03:33:38;;;;;;;4.95;2.10;;;;;;;;;;5104445;28;20238;-68
2022/05/28 03:36:05;;;;;;;6.65;2.85;;;;;;;;;;5104562;28;20287;-68
2022/05/28 03:38:32;;;;;;;8.75;2.58;;;;;;;;;;5104528;28;20196;-68
2022/05/28 03:40:59;;;;;;;4.93;2.50;;;;;;;;;;5104409;28;20202;-68
2022/05/28 03:43:26;;;;;;;3.97;2.60;;;;;;;;;;5104371;28;20503;-68
2022/05/28 03:45:53;;;;;;;5.65;2.50;;;;;;;;;;5104397;28;20199;-68
2022/05/28 03:48:19;;;;;;;5.22;2.72;;;;;;;;;;5104282;28;20503;-68
2022/05/28 03:50:46;;;;;;;7.53;2.65;;;;;;;;;;5104241;28;20195;-68
2022/05/28 03:53:12;;;;;;;4.72;2.10;;;;;;;;;;5104312;28;20199;-68
2022/05/28 03:55:39;;;;;;;4.90;2.30;;;;;;;;;;5104254;28;20195;-68
2022/05/28 03:58:06;;;;;;;5.63;2.50;;;;;;;;;;5103718;28;20417;-68
2022/05/28 04:00:33;;;;;;;6.68;2.30;;;;;;;;;;5104347;28;20203;-68
2022/05/28 04:03:00;;;;;;;5.85;2.15;;;;;;;;;;5103714;28;20214;-68
2022/05/28 04:05:26;;;;;;;4.55;2.45;;;;;;;;;;5103912;28;20219;-68
2022/05/28 04:07:52;;;;;;;5.40;2.38;;;;;;;;;;5103608;28;20200;-68
2022/05/28 04:10:19;;;;;;;5.95;2.55;;;;;;;;;;5103770;28;20203;-68
2022/05/28 04:12:45;;;;;;;6.40;1.77;;;;;;;;;;5103728;28;20196;-68
2022/05/28 04:15:12;;;;;;;8.45;2.30;;;;;;;;;;5103917;28;20522;-68
2022/05/28 04:17:40;;;;;;;4.78;2.50;;;;;;;;;;5103454;28;20219;-67
2022/05/28 04:20:08;;;;;;;5.95;2.47;;;;;;;;;;5103663;28;20503;-67
2022/05/28 04:22:34;;;;;;;8.68;2.38;;;;;;;;;;5103689;28;20511;-67
2022/05/28 04:25:01;;;;;;;5.18;2.85;;;;;;;;;;5103528;28;20535;-67
2022/05/28 04:27:27;;;;;;;8.38;3.10;;;;;;;;;;5103445;28;20200;-67
2022/05/28 04:29:53;;;;;;;7.43;2.38;;;;;;;;;;5103473;28;20202;-67
2022/05/28 04:32:19;;;;;;;6.40;2.60;;;;;;;;;;5103424;28;20203;-67
2022/05/28 04:34:47;;;;;;;5.30;2.10;;;;;;;;;;5103524;28;20396;-67
2022/05/28 04:37:13;;;;;;;6.20;2.13;;;;;;;;;;5102988;28;20212;-67
2022/05/28 04:39:40;;;;;;;4.15;2.15;;;;;;;;;;5102943;28;20202;-67
2022/05/28 04:42:06;;;;;;;9.15;3.10;;;;;;;;;;5103228;28;20210;-67
2022/05/28 04:44:32;;;;;;;7.30;2.33;;;;;;;;;;5103279;28;20196;-67
2022/05/28 04:46:59;;;;;;;7.50;2.28;;;;;;;;;;5102883;28;20192;-67
2022/05/28 04:49:25;;;;;;;8.82;2.05;;;;;;;;;;5103026;28;20207;-67
2022/05/28 04:51:53;;;;;;;8.60;2.22;;;;;;;;;;5103098;28;20495;-67
2022/05/28 04:54:19;;;;;;;5.47;1.98;;;;;;;;;;5102871;28;20206;-67
2022/05/28 04:56:46;;;;;;;6.97;1.73;;;;;;;;;;5102874;28;20223;-67
2022/05/28 04:59:12;;;;;;;9.73;2.05;;;;;;;;;;5103116;28;20202;-67
2022/05/28 05:01:38;;;;;;;6.82;1.75;;;;;;;;;;5103035;28;20202;-67
2022/05/28 05:04:05;;;;;;;9.88;2.25;;;;;;;;;;5102880;28;20526;-67
2022/05/28 05:06:31;;;;;;;5.15;2.15;;;;;;;;;;5102531;28;20218;-67
2022/05/28 05:08:59;;;;;;;7.15;1.88;;;;;;;;;;5102688;28;20203;-67
2022/05/28 05:11:25;;;;;;;12.45;2.05;;;;;;;;;;5102890;28;20204;-67
2022/05/28 05:13:51;;;;;;;6.03;1.80;;;;;;;;;;5102682;28;20203;-67
2022/05/28 05:16:18;;;;;;;7.15;1.77;;;;;;;;;;5102520;28;20527;-67
2022/05/28 05:18:45;;;;;;;6.13;1.80;;;;;;;;;;5102606;28;20564;-67
2022/05/28 05:21:12;;;;;;;9.32;1.90;;;;;;;;;;5102730;28;20199;-67
2022/05/28 05:23:38;;;;;;;7.63;1.80;;;;;;;;;;5102518;28;20195;-67
2022/05/28 05:26:10;;;;;;;6.25;2.00;;;;;;;;;;5102494;28;20387;-67
2022/05/28 05:28:36;;;;;;;9.85;2.25;;;;;;;;;;5102687;28;20200;-67
2022/05/28 05:31:02;;;;;;;5.85;1.63;;;;;;;;;;5102575;28;20227;-67
2022/05/28 05:33:28;;;;;;;8.35;1.60;;;;;;;;;;5102458;28;20199;-67
2022/05/28 05:35:55;;;;;;;5.95;1.67;;;;;;;;;;5102388;28;20432;-67
2022/05/28 05:38:21;;;;;;;8.13;1.63;;;;;;;;;;5102048;28;20219;-67
2022/05/28 05:40:50;;;;;;;5.20;1.65;;;;;;;;;;5102448;28;20484;-67
2022/05/28 05:43:18;;;;;;;6.47;1.90;;;;;;;;;;5102500;28;20219;-65
2022/05/28 05:45:51;;;;;;;6.57;1.88;;;;;;;;;;5102355;28;20196;-65
2022/05/28 05:48:17;;;;;;;9.77;2.08;;;;;;;;;;5102104;28;20203;-67
2022/05/28 05:50:43;;;;;;;10.18;2.17;;;;;;;;;;5102246;28;20196;-67
2022/05/28 05:53:09;;;;;;;5.85;2.00;;;;;;;;;;5105938;28;20372;-67
2022/05/28 05:55:36;;;;;;;7.20;3.78;;;;;;;;;;5106499;28;20204;-67
2022/05/28 05:58:02;;;;;;;7.80;2.10;;;;;;;;;;5106029;28;20227;-67
2022/05/28 06:00:29;;;;;;;10.77;4.80;;;;;;;;;;5106357;28;20195;-67
2022/05/28 06:02:56;;;;;;;9.18;1.92;;;;;;;;;;5106088;28;20245;-67
2022/05/28 06:05:22;;;;;;;9.20;2.30;;;;;;;;;;5106450;28;20224;-67
2022/05/28 06:07:49;;;;;;;7.10;2.85;;;;;;;;;;5106199;28;20192;-67
2022/05/28 06:10:16;;;;;;;7.15;2.30;;;;;;;;;;5106384;28;20196;-67
2022/05/28 06:12:42;;;;;;;8.68;2.00;;;;;;;;;;5106184;28;20405;-67
2022/05/28 06:15:09;;;;;;;8.35;1.60;;;;;;;;;;5105940;28;20203;-67
2022/05/28 06:17:37;;;;;;;6.18;1.50;;;;;;;;;;5105630;28;20411;-67
2022/05/28 06:20:04;;;;;;;8.48;1.80;;;;;;;;;;5106114;28;20248;-67
2022/05/28 06:22:31;;;;;;;6.40;1.73;;;;;;;;;;5105991;28;20195;-67
2022/05/28 06:24:57;;;;;;;6.43;1.63;;;;;;;;;;5106064;28;20195;-67
2022/05/28 06:27:23;;;;;;;7.70;1.52;;;;;;;;;;5105727;28;20192;-67
2022/05/28 06:29:50;;;;;;;5.03;1.63;;;;;;;;;;5105874;28;20203;-67
2022/05/28 06:32:16;;;;;;;6.65;1.45;;;;;;;;;;5105775;28;20222;-67
2022/05/28 06:34:44;;;;;;;8.75;1.70;;;;;;;;;;5105926;28;20203;-67
2022/05/28 06:37:11;;;;;;;7.07;1.60;;;;;;;;;;5105511;28;20220;-67
2022/05/28 06:39:37;;;;;;;8.32;1.52;;;;;;;;;;5105643;28;20200;-67
2022/05/28 06:42:04;;;;;;;10.98;1.83;;;;;;;;;;5105521;28;20217;-67
2022/05/28 06:44:30;;;;;;;8.65;1.67;;;;;;;;;;5105543;28;20196;-67
2022/05/28 06:46:57;;;;;;;12.00;2.05;;;;;;;;;;5105147;28;20192;-67
2022/05/28 06:49:23;;;;;;;5.47;1.92;;;;;;;;;;5105599;28;20200;-67
2022/05/28 06:51:52;;;;;;;12.70;2.17;;;;;;;;;;5105443;28;20203;-67
2022/05/28 06:54:18;;;;;;;5.22;1.77;;;;;;;;;;5105426;28;20195;-67
2022/05/28 06:56:44;;;;;;;8.63;2.05;;;;;;;;;;5105004;28;20202;-67
2022/05/28 06:59:11;;;;;;;6.03;1.92;;;;;;;;;;5105175;28;20195;-68
2022/05/28 07:01:37;;;;;;;6.65;1.77;;;;;;;;;;5105311;28;20504;-66
2022/05/28 07:04:04;;;;;;;7.20;1.77;;;;;;;;;;5105004;28;20203;-66
2022/05/28 07:06:31;;;;;;;7.70;1.85;;;;;;;;;;5104799;28;20215;-67
2022/05/28 07:08:59;;;;;;;6.53;1.58;;;;;;;;;;5105434;28;20200;-67
2022/05/28 07:11:26;;;;;;;5.18;1.65;;;;;;;;;;5104985;28;20195;-67
2022/05/28 07:13:52;;;;;;;4.38;1.42;;;;;;;;;;5104791;28;20223;-67
2022/05/28 07:16:18;;;;;;;5.78;1.48;;;;;;;;;;5104722;28;20196;-67
2022/05/28 07:18:45;;;;;;;10.57;1.67;;;;;;;;;;5104947;28;20215;-59
2022/05/28 07:21:11;;;;;;;11.95;1.73;;;;;;;;;;5104936;28;20203;-58
2022/05/28 07:23:37;;;;;;;4.93;1.15;;;;;;;;;;5104850;28;20388;-57
2022/05/28 07:26:06;;;;;;;5.05;1.63;;;;;;;;;;5104562;28;20200;-58
2022/05/28 07:28:33;;;;;;;5.07;1.23;;;;;;;;;;5104635;28;20368;-59
2022/05/28 07:31:01;;;;;;;4.63;1.40;;;;;;;;;;5104615;28;20215;-58
2022/05/28 07:33:28;;;;;;;8.52;1.33;;;;;;;;;;5104747;28;20200;-57
2022/05/28 07:35:55;;;;;;;6.65;1.15;;;;;;;;;;5104357;28;20210;-58
2022/05/28 07:38:23;;;;;;;5.22;1.40;;;;;;;;;;5104544;28;20216;-57
2022/05/28 07:40:50;;;;;;;8.32;1.52;;;;;;;;;;5104636;28;20447;-57
2022/05/28 07:43:17;;;;;;;6.03;1.48;;;;;;;;;;5104415;28;20203;-56
2022/05/28 07:45:44;;;;;;;7.30;1.30;;;;;;;;;;5104325;28;20196;-58
2022/05/28 07:48:11;;;;;;;4.57;1.30;;;;;;;;;;5104229;28;20198;-58
2022/05/28 07:50:37;;;;;;;5.97;1.60;;;;;;;;;;5104656;28;20203;-58
2022/05/28 07:53:04;;;;;;;4.95;1.25;;;;;;;;;;5104116;28;20195;-57
2022/05/28 07:55:30;;;;;;;6.97;1.42;;;;;;;;;;5104100;28;20530;-57
2022/05/28 07:57:57;;;;;;;3.08;0.98;;;;;;;;;;5104124;28;20218;-57
2022/05/28 08:00:25;;;;;;;6.95;1.20;;;;;;;;;;5105146;28;20199;-58
2022/05/28 08:02:51;;;;;;;5.75;1.20;;;;;;;;;;5103985;28;20195;-56
2022/05/28 08:05:17;;;;;;;3.90;1.10;;;;;;;;;;5103987;28;20223;-56
2022/05/28 08:07:44;;;;;;;6.78;1.30;;;;;;;;;;5103610;28;20192;-56
2022/05/28 08:10:10;;;;;;;8.00;1.40;;;;;;;;;;5103628;28;20196;-56
2022/05/28 08:12:36;;;;;;;4.55;1.45;;;;;;;;;;5104037;28;20199;-58
2022/05/28 08:15:03;;;;;;;6.00;1.50;;;;;;;;;;5103226;28;20196;-58
2022/05/28 08:17:31;;;;;;;4.18;1.15;;;;;;;;;;5103602;28;20549;-56
2022/05/28 08:19:57;;;;;;;4.03;1.20;;;;;;;;;;5103818;28;20241;-57
2022/05/28 08:25:07;;;;;;;5.72;1.20;;;;;;;;;;5103440;28;20410;-57
2022/05/28 08:27:35;;;;;;;8.25;1.40;;;;;;;;;;5103284;28;20199;-57
2022/05/28 08:30:02;;;;;;;4.88;1.10;;;;;;;;;;5103230;28;20195;-56
2022/05/28 08:32:28;;;;;;;4.70;1.48;;;;;;;;;;5103498;28;20508;-55
2022/05/28 08:34:55;;;;;;;4.25;0.90;;;;;;;;;;5103385;28;20395;-56
2022/05/28 08:37:22;;;;;;;2.47;1.27;;;;;;;;;;5102720;28;20202;-57
2022/05/28 08:39:48;;;;;;;3.00;1.00;;;;;;;;;;5103267;28;20229;-57
2022/05/28 08:42:15;;;;;;;5.32;1.10;;;;;;;;;;5103159;28;20196;-56
2022/05/28 08:44:42;;;;;;;2.47;1.10;;;;;;;;;;5103353;28;20195;-57
2022/05/28 08:47:14;;;;;;;3.72;1.23;;;;;;;;;;5102982;28;20426;-57
2022/05/28 08:49:40;;;;;;;4.70;1.55;;;;;;;;;;5103189;28;20203;-57
2022/05/28 08:52:09;;;;;;;3.00;1.00;;;;;;;;;;5103001;28;20200;-56
2022/05/28 08:54:37;;;;;;;2.85;0.80;;;;;;;;;;5103270;28;20227;-57
2022/05/28 08:57:07;;;;;;;3.00;1.20;;;;;;;;;;5102956;28;20196;-57
2022/05/28 08:59:35;;;;;;;3.42;1.00;;;;;;;;;;5102786;28;20216;-57
2022/05/28 09:02:02;;;;;;;2.67;0.80;;;;;;;;;;5102809;28;20203;-57
2022/05/28 09:04:31;;;;;;;4.28;1.17;;;;;;;;;;5102754;28;20248;-57
2022/05/28 09:06:59;;;;;;;1.38;1.02;;;;;;;;;;5102804;28;20204;-56
2022/05/28 09:09:29;;;;;;;4.13;1.10;;;;;;;;;;5102826;28;20391;-57
2022/05/28 09:11:59;;;;;;;6.40;1.23;;;;;;;;;;5102894;28;20211;-58
2022/05/28 09:14:27;;;;;;;3.50;1.40;;;;;;;;;;5103204;28;20196;-57
2022/05/28 09:16:55;;;;;;;4.60;1.15;;;;;;;;;;5102384;28;20225;-58
2022/05/28 09:19:22;;;;;;;2.92;1.25;;;;;;;;;;5102514;28;20223;-57
2022/05/28 09:21:49;;;;;;;4.35;1.25;;;;;;;;;;5102776;28;20199;-57
2022/05/28 09:24:17;;;;;;;2.97;1.02;;;;;;;;;;5102614;28;20234;-56
2022/05/28 09:26:50;;;;;;;1.65;0.75;;;;;;;;;;5099901;28;20195;-57
2022/05/28 09:29:22;;;;;;;2.80;1.20;;;;;;;;;;5101341;28;20359;-59
2022/05/28 09:31:54;;;;;;;2.85;1.15;;;;;;;;;;5101953;28;20200;-58
2022/05/28 09:34:28;;;;;;;2.25;1.17;;;;;;;;;;5101948;28;20195;-59
2022/05/28 09:36:57;;;;;;;3.42;1.20;;;;;;;;;;5101649;28;20200;-58
2022/05/28 09:39:29;;;;;;;3.72;1.15;;;;;;;;;;5101598;28;20472;-58
2022/05/28 09:42:02;;;;;;;4.35;1.23;;;;;;;;;;5102111;28;20388;-57
2022/05/28 09:44:35;;;;;;;3.60;0.90;;;;;;;;;;5102511;28;20202;-58
2022/05/28 09:47:08;;;;;;;5.00;1.10;;;;;;;;;;5102251;28;20210;-58
2022/05/28 09:49:34;;;;;;;6.07;1.25;;;;;;;;;;5102345;28;20202;-57
2022/05/28 09:52:06;;;;;;;3.40;1.00;;;;;;;;;;5102211;28;20196;-58
2022/05/28 09:54:33;;;;;;;5.38;1.30;;;;;;;;;;5102241;28;20429;-58
2022/05/28 09:57:03;;;;;;;4.70;1.48;;;;;;;;;;5101764;28;20456;-59
2022/05/28 09:59:32;;;;;;;5.50;1.58;;;;;;;;;;5102148;28;20219;-58
2022/05/28 10:01:59;;;;;;;3.95;1.27;;;;;;;;;;5102255;28;20195;-59
2022/05/28 10:04:31;;;;;;;4.25;1.15;;;;;;;;;;5102057;28;20207;-59
2022/05/28 10:06:59;;;;;;;4.53;1.60;;;;;;;;;;5101958;28;20198;-59
2022/05/28 10:09:27;;;;;;;4.38;1.80;;;;;;;;;;5102373;28;20192;-59
2022/05/28 10:11:54;;;;;;;3.38;1.40;;;;;;;;;;5102354;28;20195;-58
2022/05/28 10:14:22;;;;;;;3.90;0.95;;;;;;;;;;5102315;28;20496;-57
2022/05/28 10:16:49;;;;;;;7.13;1.80;;;;;;;;;;5102182;28;20196;-59
2022/05/28 10:19:17;;;;;;;3.35;1.10;;;;;;;;;;5102447;28;20212;-58
2022/05/28 10:21:47;;;;;;;5.20;1.23;;;;;;;;;;5102334;28;20203;-58
2022/05/28 10:24:15;;;;;;;6.00;1.33;;;;;;;;;;5102483;28;20196;-59
2022/05/28 10:26:44;;;;;;;3.95;1.40;;;;;;;;;;5101909;28;20237;-59
2022/05/28 10:29:17;;;;;;;2.85;0.95;;;;;;;;;;5101982;28;20218;-59
2022/05/28 10:31:46;;;;;;;0.80;0.80;;;;;;;;;;5101820;28;20196;-59
2022/05/28 10:34:22;;;;;;;4.55;1.10;;;;;;;;;;5101862;28;20236;-59
2022/05/28 10:36:48;;;;;;;6.95;1.00;;;;;;;;;;5086650;28;20216;-57
2022/05/28 10:39:17;;;;;;;2.83;1.25;;;;;;;;;;5091163;28;20219;-59
2022/05/28 10:41:44;;;;;;;3.60;1.13;;;;;;;;;;5099453;28;20234;-59
2022/05/28 10:44:12;;;;;;;2.63;1.55;;;;;;;;;;5099897;28;20215;-58
2022/05/28 10:46:50;;;;;;;5.40;1.10;;;;;;;;;;5099698;28;20215;-57
2022/05/28 10:49:28;;;;;;;3.35;1.30;;;;;;;;;;5099644;28;20203;-58
2022/05/28 10:51:58;;;;;;;3.40;1.10;;;;;;;;;;5099598;28;20210;-58
2022/05/28 10:54:30;;;;;;;4.80;1.10;;;;;;;;;;5099744;28;20200;-59
2022/05/28 10:57:03;;;;;;;8.80;1.27;;;;;;;;;;5099034;28;20215;-58
2022/05/28 10:59:39;;;;;;;3.33;1.10;;;;;;;;;;5099573;28;20277;-59
2022/05/28 11:02:16;;;;;;;4.60;1.70;;;;;;;;;;5099551;28;20215;-59
2022/05/28 11:04:49;;;;;;;4.95;2.20;;;;;;;;;;5099420;28;20219;-57
2022/05/28 11:07:25;;;;;;;10.00;1.52;;;;;;;;;;5098505;28;20208;-58
2022/05/28 11:09:57;;;;;;;2.10;1.15;;;;;;;;;;5099271;28;20204;-57
2022/05/28 11:12:36;;;;;;;3.00;1.02;;;;;;;;;;5099186;28;20515;-57
2022/05/28 11:15:08;;;;;;;3.47;1.05;;;;;;;;;;5099100;28;20537;-58
2022/05/28 11:17:53;;;;;;;3.58;1.25;;;;;;;;;;5101423;28;20222;-59
2022/05/28 11:20:23;;;;;;;2.97;1.00;;;;;;;;;;5105132;28;20420;-59
2022/05/28 11:22:58;;;;;;;3.60;1.30;;;;;;;;;;5105222;28;20211;-59
2022/05/28 11:25:30;;;;;;;2.53;1.50;;;;;;;;;;5104815;28;20240;-59
2022/05/28 11:28:05;;;;;;;2.60;1.17;;;;;;;;;;5104504;28;20205;-59
2022/05/28 11:30:34;;;;;;;2.00;1.05;;;;;;;;;;5104961;28;20487;-59
2022/05/28 11:33:04;;;;;;;2.22;1.08;;;;;;;;;;5104701;28;20500;-59
2022/05/28 11:35:37;;;;;;;2.28;0.90;;;;;;;;;;5104776;28;20421;-58
2022/05/28 11:38:06;;;;;;;3.50;1.30;;;;;;;;;;5104240;28;20200;-59
2022/05/28 11:40:35;;;;;;;1.25;0.90;;;;;;;;;;5104433;28;20496;-59
2022/05/28 11:43:03;;;;;;;3.38;1.00;;;;;;;;;;5104605;28;20195;-59
2022/05/28 11:45:33;;;;;;;3.20;1.10;;;;;;;;;;5104540;28;20499;-58
2022/05/28 11:48:01;;;;;;;5.20;1.20;;;;;;;;;;5103875;28;20204;-58
2022/05/28 11:53:19;;;;;;;2.05;0.82;;;;;;;;;;5104391;28;20195;-59
2022/05/28 11:55:46;;;;;;;2.17;1.00;;;;;;;;;;5104464;28;20434;-59
2022/05/28 11:58:15;;;;;;;3.85;0.95;;;;;;;;;;5103914;28;20203;-59
2022/05/28 12:00:42;;;;;;;1.92;0.77;;;;;;;;;;5104212;28;20390;-59
2022/05/28 12:03:12;;;;;;;2.72;0.70;;;;;;;;;;5104018;28;20204;-59
2022/05/28 12:05:41;;;;;;;3.92;1.10;;;;;;;;;;5103821;28;20230;-58
2022/05/28 12:08:08;;;;;;;5.88;1.30;;;;;;;;;;5103747;28;20267;-59
2022/05/28 12:10:39;;;;;;;2.15;1.20;;;;;;;;;;5104062;28;20265;-59
2022/05/28 12:13:06;;;;;;;2.05;0.85;;;;;;;;;;5104002;28;20325;-59
2022/05/28 12:15:34;;;;;;;1.77;0.98;;;;;;;;;;5103790;28;20204;-59
2022/05/28 12:18:03;;;;;;;2.60;0.90;;;;;;;;;;5103418;28;20234;-60
2022/05/28 12:20:30;;;;;;;1.70;0.90;;;;;;;;;;5103836;28;20227;-59
2022/05/28 12:23:00;;;;;;;3.15;0.90;;;;;;;;;;5103845;28;20237;-60
2022/05/28 12:25:32;;;;;;;3.80;1.20;;;;;;;;;;5103653;28;20211;-59
2022/05/28 12:28:08;;;;;;;1.73;0.70;;;;;;;;;;5103431;28;20207;-58
2022/05/28 12:30:48;;;;;;;3.25;1.05;;;;;;;;;;5103510;28;20423;-59
2022/05/28 12:33:18;;;;;;;18.17;2.17;;;;;;;;;;5103713;28;20195;-59
2022/05/28 12:35:50;;;;;;;11.50;1.73;;;;;;;;;;5103553;28;20518;-59
2022/05/28 12:38:22;;;;;;;53.83;5.63;;;;;;;;;;5103113;28;20248;-59
2022/05/28 12:40:53;;;;;;;7.72;1.10;;;;;;;;;;5103125;28;20199;-59
2022/05/28 12:43:25;;;;;;;8.13;1.45;;;;;;;;;;5103193;28;20203;-57
2022/05/28 12:45:52;;;;;;;21.67;2.03;;;;;;;;;;5103298;28;20203;-58
2022/05/28 12:48:21;;;;;;;16.02;1.77;;;;;;;;;;5102965;28;20196;-59
2022/05/28 12:50:59;;;;;;;8.68;1.30;;;;;;;;;;5103184;28;20195;-59
2022/05/28 12:53:27;;;;;;;5.22;1.20;;;;;;;;;;5103113;28;20195;-59
2022/05/28 12:56:00;;;;;;;1.35;0.95;;;;;;;;;;5103066;28;20200;-60
2022/05/28 12:58:27;;;;;;;4.88;0.90;;;;;;;;;;5103078;28;20242;-60
2022/05/28 13:00:55;;;;;;;3.72;1.10;;;;;;;;;;5102866;28;20201;-60
2022/05/28 13:03:23;;;;;;;7.85;0.80;;;;;;;;;;5102953;28;20214;-59
2022/05/28 13:05:51;;;;;;;4.07;0.90;;;;;;;;;;5102765;28;20223;-60
2022/05/28 13:08:21;;;;;;;1.67;0.88;;;;;;;;;;5102526;28;20203;-60
2022/05/28 13:10:52;;;;;;;2.08;0.82;;;;;;;;;;5102986;28;20229;-60
2022/05/28 13:13:34;;;;;;;3.35;1.30;;;;;;;;;;5102885;28;20537;-60
2022/05/28 13:16:11;;;;;;;1.85;0.70;;;;;;;;;;5102651;28;20248;-59
2022/05/28 13:18:55;;;;;;;5.15;1.25;;;;;;;;;;5102536;28;20204;-59
2022/05/28 13:21:30;;;;;;;4.22;1.13;;;;;;;;;;5102656;28;20199;-60
2022/05/28 13:24:27;;;;;;;2.63;1.27;;;;;;;;;;5102817;28;20232;-60
2022/05/28 13:27:02;;;;;;;4.85;1.00;;;;;;;;;;5040051;28;20208;-60
2022/05/28 13:29:46;;;;;;;6.28;1.20;;;;;;;;;;5090905;28;20191;-60
2022/05/28 13:32:16;;;;;;;4.95;0.80;;;;;;;;;;5102449;28;20533;-60
2022/05/28 13:34:42;;;;;;;10.93;1.30;;;;;;;;;;5102587;28;20195;-60
2022/05/28 13:37:16;;;;;;;4.70;1.13;;;;;;;;;;5102122;28;20196;-59
2022/05/28 13:39:43;;;;;;;3.75;1.35;;;;;;;;;;5102646;28;20557;-59
2022/05/28 13:42:12;;;;;;;2.58;1.00;;;;;;;;;;5102574;28;20195;-59
2022/05/28 13:44:42;;;;;;;5.00;1.13;;;;;;;;;;5102533;28;20496;-60
2022/05/28 13:47:09;;;;;;;1.80;0.82;;;;;;;;;;5102236;28;20184;-60
2022/05/28 13:49:37;;;;;;;3.67;0.88;;;;;;;;;;5102425;28;20199;-60
2022/05/28 13:52:08;;;;;;;1.52;0.70;;;;;;;;;;5102663;28;20396;-60
2022/05/28 13:54:34;;;;;;;4.40;1.33;;;;;;;;;;5102487;28;20425;-60
2022/05/28 13:57:02;;;;;;;3.08;0.77;;;;;;;;;;5102294;28;20503;-59
2022/05/28 13:59:31;;;;;;;2.90;0.90;;;;;;;;;;5102008;28;20219;-60
2022/05/28 14:01:57;;;;;;;2.65;1.00;;;;;;;;;;5102243;28;20196;-60
2022/05/28 14:04:25;;;;;;;3.42;1.13;;;;;;;;;;5102059;28;20203;-58
2022/05/28 14:06:54;;;;;;;3.85;1.40;;;;;;;;;;5102028;28;20282;-60
2022/05/28 14:09:20;;;;;;;2.95;0.90;;;;;;;;;;5102199;28;20192;-60
2022/05/28 14:11:47;;;;;;;1.50;1.02;;;;;;;;;;5102206;28;20203;-60
2022/05/28 14:14:15;;;;;;;1.95;0.95;;;;;;;;;;5105607;28;20503;-59
2022/05/28 14:16:44;;;;;;;1.58;1.00;;;;;;;;;;5105759;28;20195;-60
2022/05/28 14:19:16;;;;;;;2.45;0.85;;;;;;;;;;5105875;28;20225;-60
2022/05/28 14:21:49;;;;;;;5.00;1.17;;;;;;;;;;5106186;28;20203;-60
2022/05/28 14:24:17;;;;;;;2.58;0.93;;;;;;;;;;5106046;28;20200;-60
2022/05/28 14:26:44;;;;;;;2.42;0.70;;;;;;;;;;5105696;28;20514;-60
2022/05/28 14:29:11;;;;;;;1.75;0.80;;;;;;;;;;5105943;28;20249;-59
2022/05/28 14:31:37;;;;;;;2.47;0.90;;;;;;;;;;5105625;28;20214;-60
2022/05/28 14:34:05;;;;;;;2.47;1.05;;;;;;;;;;5106038;28;20271;-60
2022/05/28 14:36:33;;;;;;;2.53;1.08;;;;;;;;;;5105720;28;20417;-60
2022/05/28 14:39:10;;;;;;;2.67;0.95;;;;;;;;;;5105667;28;20313;-59
2022/05/28 14:41:37;;;;;;;2.22;0.90;;;;;;;;;;5105595;28;20196;-59
2022/05/28 14:44:04;;;;;;;7.47;0.85;;;;;;;;;;5105412;28;20202;-60
2022/05/28 14:46:32;;;;;;;3.63;1.40;;;;;;;;;;5105506;28;20394;-59
2022/05/28 14:49:00;;;;;;;3.83;0.90;;;;;;;;;;5105385;28;20196;-59
2022/05/28 14:51:29;;;;;;;4.55;0.90;;;;;;;;;;5105506;28;20553;-60
2022/05/28 14:53:56;;;;;;;2.33;0.68;;;;;;;;;;5105584;28;20476;-59
2022/05/28 14:56:25;;;;;;;2.22;0.77;;;;;;;;;;5105037;28;20372;-59